sensor_id;sensor_type;location;lat;lon;timestamp;pressure;altitude;pressure_sealevel;temperature;humidity
12963;BME280;6546;49.882;8.666;2022-09-30T00:00:35;99033.06;;;9.00;100.00
12963;BME280;6546;49.882;8.666;2022-09-30T00:03:02;99026.97;;;9.14;100.00
12963;BME280;6546;49.882;8.666;2022-09-30T00:05:29;99033.03;;;9.04;100.00
12963;BME280;6546;49.882;8.666;2022-09-30T00:07:56;99031.34;;;8.99;100.00
12963;BME280;6546;49.882;8.666;2022-09-30T00:10:23;99039.09;;;8.99;100.00
12963;BME280;6546;49.882;8.666;2022-09-30T00:12:50;99037.31;;;9.09;100.00
12963;BME280;6546;49.882;8.666;2022-09-30T00:15:17;99043.31;;;9.13;100.00
12963;BME280;6546;49.882;8.666;2022-09-30T00:17:44;99048.47;;;9.16;99.88
12963;BME280;6546;49.882;8.666;2022-09-30T00:20:11;99046.72;;;9.18;98.59
12963;BME280;6546;49.882;8.666;2022-09-30T00:22:38;99043.28;;;9.17;97.70
12963;BME280;6546;49.882;8.666;2022-09-30T00:25:07;99045.91;;;9.11;96.96
12963;BME280;6546;49.882;8.666;2022-09-30T00:27:33;99045.06;;;9.05;96.89
12963;BME280;6546;49.882;8.666;2022-09-30T00:30:00;99043.41;;;8.93;98.63
12963;BME280;6546;49.882;8.666;2022-09-30T00:32:27;99046.00;;;8.88;98.78
12963;BME280;6546;49.882;8.666;2022-09-30T00:34:53;99046.84;;;8.98;98.96
12963;BME280;6546;49.882;8.666;2022-09-30T00:37:20;99033.06;;;9.00;98.47
12963;BME280;6546;49.882;8.666;2022-09-30T00:39:46;99039.06;;;9.04;98.18
12963;BME280;6546;49.882;8.666;2022-09-30T00:42:14;99041.66;;;9.01;98.66
12963;BME280;6546;49.882;8.666;2022-09-30T00:44:47;99031.34;;;9.03;98.44
12963;BME280;6546;49.882;8.666;2022-09-30T00:47:45;99034.75;;;9.08;99.06
12963;BME280;6546;49.882;8.666;2022-09-30T00:50:31;99035.63;;;9.07;99.04
12963;BME280;6546;49.882;8.666;2022-09-30T00:53:05;99036.47;;;9.06;99.48
12963;BME280;6546;49.882;8.666;2022-09-30T00:55:45;99033.81;;;9.18;99.11
12963;BME280;6546;49.882;8.666;2022-09-30T00:58:20;99044.09;;;9.27;97.26
12963;BME280;6546;49.882;8.666;2022-09-30T01:00:48;99047.56;;;9.18;97.16
12963;BME280;6546;49.882;8.666;2022-09-30T01:03:16;99047.69;;;9.03;98.87
12963;BME280;6546;49.882;8.666;2022-09-30T01:05:43;99046.81;;;9.01;100.00
12963;BME280;6546;49.882;8.666;2022-09-30T01:08:10;99053.66;;;9.05;99.88
12963;BME280;6546;49.882;8.666;2022-09-30T01:10:36;99048.47;;;9.10;99.71
12963;BME280;6546;49.882;8.666;2022-09-30T01:13:03;99055.34;;;9.14;100.00
12963;BME280;6546;49.882;8.666;2022-09-30T01:15:44;99049.31;;;9.19;100.00
12963;BME280;6546;49.882;8.666;2022-09-30T01:18:22;99051.88;;;9.24;100.00
12963;BME280;6546;49.882;8.666;2022-09-30T01:24:23;99048.47;;;9.19;100.00
12963;BME280;6546;49.882;8.666;2022-09-30T01:27:17;99057.91;;;9.20;100.00
12963;BME280;6546;49.882;8.666;2022-09-30T01:30:02;99057.88;;;9.21;100.00
12963;BME280;6546;49.882;8.666;2022-09-30T01:32:42;99057.03;;;9.24;100.00
12963;BME280;6546;49.882;8.666;2022-09-30T01:35:15;99064.69;;;9.36;100.00
12963;BME280;6546;49.882;8.666;2022-09-30T01:37:55;99056.88;;;9.45;99.64
12963;BME280;6546;49.882;8.666;2022-09-30T01:40:27;99061.22;;;9.39;98.71
12963;BME280;6546;49.882;8.666;2022-09-30T01:43:04;99057.03;;;9.24;100.00
12963;BME280;6546;49.882;8.666;2022-09-30T01:45:34;99066.50;;;9.23;100.00
12963;BME280;6546;49.882;8.666;2022-09-30T01:48:07;99067.34;;;9.27;100.00
12963;BME280;6546;49.882;8.666;2022-09-30T01:50:44;99064.75;;;9.29;100.00
12963;BME280;6546;49.882;8.666;2022-09-30T01:53:19;99069.00;;;9.31;100.00
12963;BME280;6546;49.882;8.666;2022-09-30T01:55:53;99069.03;;;9.33;100.00
12963;BME280;6546;49.882;8.666;2022-09-30T01:58:28;99070.69;;;9.38;100.00
12963;BME280;6546;49.882;8.666;2022-09-30T02:00:58;99071.53;;;9.42;100.00
12963;BME280;6546;49.882;8.666;2022-09-30T02:03:30;99070.69;;;9.41;100.00
12963;BME280;6546;49.882;8.666;2022-09-30T02:06:01;99068.09;;;9.41;100.00
12963;BME280;6546;49.882;8.666;2022-09-30T02:08:31;99068.91;;;9.49;100.00
12963;BME280;6546;49.882;8.666;2022-09-30T02:11:04;99066.25;;;9.60;100.00
12963;BME280;6546;49.882;8.666;2022-09-30T02:13:37;99069.81;;;9.44;100.00
12963;BME280;6546;49.882;8.666;2022-09-30T02:16:06;99073.22;;;9.47;100.00
12963;BME280;6546;49.882;8.666;2022-09-30T02:18:41;99080.16;;;9.44;100.00
12963;BME280;6546;49.882;8.666;2022-09-30T02:21:10;99076.69;;;9.43;100.00
12963;BME280;6546;49.882;8.666;2022-09-30T02:23:41;99083.59;;;9.38;100.00
12963;BME280;6546;49.882;8.666;2022-09-30T02:26:13;99076.69;;;9.45;100.00
12963;BME280;6546;49.882;8.666;2022-09-30T02:28:45;99092.13;;;9.51;100.00
12963;BME280;6546;49.882;8.666;2022-09-30T02:31:15;99086.13;;;9.47;99.33
12963;BME280;6546;49.882;8.666;2022-09-30T02:33:48;99088.75;;;9.38;99.74
12963;BME280;6546;49.882;8.666;2022-09-30T02:36:19;99082.72;;;9.45;99.94
12963;BME280;6546;49.882;8.666;2022-09-30T02:38:50;99087.88;;;9.45;99.96
12963;BME280;6546;49.882;8.666;2022-09-30T02:41:23;99075.84;;;9.38;99.58
12963;BME280;6546;49.882;8.666;2022-09-30T02:43:52;99074.16;;;9.37;100.00
12963;BME280;6546;49.882;8.666;2022-09-30T02:46:25;99076.78;;;9.30;100.00
12963;BME280;6546;49.882;8.666;2022-09-30T02:48:59;99077.66;;;9.27;100.00
12963;BME280;6546;49.882;8.666;2022-09-30T02:51:34;99088.88;;;9.17;100.00
12963;BME280;6546;49.882;8.666;2022-09-30T02:54:12;99090.63;;;9.09;100.00
12963;BME280;6546;49.882;8.666;2022-09-30T02:56:48;99090.66;;;9.01;100.00
12963;BME280;6546;49.882;8.666;2022-09-30T02:59:18;99093.28;;;8.98;100.00
12963;BME280;6546;49.882;8.666;2022-09-30T03:01:45;99098.47;;;8.90;100.00
12963;BME280;6546;49.882;8.666;2022-09-30T03:04:15;99106.19;;;8.92;100.00
12963;BME280;6546;49.882;8.666;2022-09-30T03:06:44;99114.78;;;8.94;100.00
12963;BME280;6546;49.882;8.666;2022-09-30T03:09:11;99113.06;;;8.94;100.00
12963;BME280;6546;49.882;8.666;2022-09-30T03:11:37;99110.50;;;8.91;100.00
12963;BME280;6546;49.882;8.666;2022-09-30T03:17:15;99115.69;;;8.85;100.00
12963;BME280;6546;49.882;8.666;2022-09-30T03:20:05;99107.94;;;8.79;100.00
12963;BME280;6546;49.882;8.666;2022-09-30T03:22:46;99111.41;;;8.75;100.00
12963;BME280;6546;49.882;8.666;2022-09-30T03:25:27;99109.69;;;8.68;100.00
12963;BME280;6546;49.882;8.666;2022-09-30T03:28:04;99114.00;;;8.66;100.00
12963;BME280;6546;49.882;8.666;2022-09-30T03:30:41;99112.28;;;8.65;100.00
12963;BME280;6546;49.882;8.666;2022-09-30T03:33:16;99100.28;;;8.55;100.00
12963;BME280;6546;49.882;8.666;2022-09-30T03:35:54;99104.59;;;8.49;100.00
12963;BME280;6546;49.882;8.666;2022-09-30T03:38:33;99112.28;;;8.62;100.00
12963;BME280;6546;49.882;8.666;2022-09-30T03:41:05;99117.47;;;8.54;100.00
12963;BME280;6546;49.882;8.666;2022-09-30T03:43:37;99118.34;;;8.47;100.00
12963;BME280;6546;49.882;8.666;2022-09-30T03:46:10;99115.75;;;8.55;100.00
12963;BME280;6546;49.882;8.666;2022-09-30T03:48:41;99118.31;;;8.65;100.00
12963;BME280;6546;49.882;8.666;2022-09-30T03:51:11;99122.59;;;8.71;100.00
12963;BME280;6546;49.882;8.666;2022-09-30T03:53:40;99129.47;;;8.66;100.00
12963;BME280;6546;49.882;8.666;2022-09-30T03:56:06;99131.22;;;8.58;100.00
12963;BME280;6546;49.882;8.666;2022-09-30T03:58:33;99135.50;;;8.49;99.20
12963;BME280;6546;49.882;8.666;2022-09-30T04:01:02;99136.38;;;8.45;98.75
12963;BME280;6546;49.882;8.666;2022-09-30T04:03:28;99132.94;;;8.37;99.74
12963;BME280;6546;49.882;8.666;2022-09-30T04:05:55;99125.22;;;8.31;99.17
12963;BME280;6546;49.882;8.666;2022-09-30T04:08:23;99129.50;;;8.17;98.07
12963;BME280;6546;49.882;8.666;2022-09-30T04:10:49;99125.22;;;8.07;99.45
12963;BME280;6546;49.882;8.666;2022-09-30T04:13:16;99127.78;;;8.04;99.82
12963;BME280;6546;49.882;8.666;2022-09-30T04:15:42;99133.78;;;7.92;99.46
12963;BME280;6546;49.882;8.666;2022-09-30T04:18:09;99140.63;;;7.82;100.00
12963;BME280;6546;49.882;8.666;2022-09-30T04:20:37;99145.81;;;7.85;100.00
12963;BME280;6546;49.882;8.666;2022-09-30T04:23:03;99148.34;;;7.79;100.00
12963;BME280;6546;49.882;8.666;2022-09-30T04:25:31;99150.06;;;7.74;100.00
12963;BME280;6546;49.882;8.666;2022-09-30T04:27:58;99150.94;;;7.78;100.00
12963;BME280;6546;49.882;8.666;2022-09-30T04:30:24;99153.50;;;7.70;100.00
12963;BME280;6546;49.882;8.666;2022-09-30T04:32:51;99150.91;;;7.68;100.00
12963;BME280;6546;49.882;8.666;2022-09-30T04:35:17;99162.94;;;7.72;100.00
12963;BME280;6546;49.882;8.666;2022-09-30T04:37:44;99159.53;;;7.77;100.00
12963;BME280;6546;49.882;8.666;2022-09-30T04:40:13;99168.94;;;7.73;100.00
12963;BME280;6546;49.882;8.666;2022-09-30T04:42:41;99168.09;;;7.68;100.00
12963;BME280;6546;49.882;8.666;2022-09-30T04:45:09;99167.22;;;7.66;100.00
12963;BME280;6546;49.882;8.666;2022-09-30T04:47:36;99163.78;;;7.68;100.00
12963;BME280;6546;49.882;8.666;2022-09-30T04:50:04;99171.53;;;7.71;100.00
12963;BME280;6546;49.882;8.666;2022-09-30T04:52:31;99174.13;;;7.76;100.00
12963;BME280;6546;49.882;8.666;2022-09-30T04:54:58;99172.38;;;7.72;99.72
12963;BME280;6546;49.882;8.666;2022-09-30T04:57:25;99187.81;;;7.63;99.52
12963;BME280;6546;49.882;8.666;2022-09-30T04:59:53;99175.78;;;7.56;98.92
12963;BME280;6546;49.882;8.666;2022-09-30T05:02:19;99181.78;;;7.52;99.41
12963;BME280;6546;49.882;8.666;2022-09-30T05:04:45;99184.31;;;7.45;99.86
12963;BME280;6546;49.882;8.666;2022-09-30T05:07:12;99187.75;;;7.46;100.00
12963;BME280;6546;49.882;8.666;2022-09-30T05:09:39;99185.16;;;7.40;99.02
12963;BME280;6546;49.882;8.666;2022-09-30T05:12:05;99188.53;;;7.33;100.00
12963;BME280;6546;49.882;8.666;2022-09-30T05:14:32;99191.97;;;7.30;100.00
12963;BME280;6546;49.882;8.666;2022-09-30T05:17:00;99189.38;;;7.21;100.00
12963;BME280;6546;49.882;8.666;2022-09-30T05:19:28;99190.19;;;7.20;100.00
12963;BME280;6546;49.882;8.666;2022-09-30T05:21:54;99203.91;;;7.16;100.00
12963;BME280;6546;49.882;8.666;2022-09-30T05:24:21;99198.81;;;7.25;100.00
12963;BME280;6546;49.882;8.666;2022-09-30T05:26:48;99203.06;;;7.14;100.00
12963;BME280;6546;49.882;8.666;2022-09-30T05:29:14;99203.06;;;7.20;100.00
12963;BME280;6546;49.882;8.666;2022-09-30T05:31:41;99208.19;;;7.12;100.00
12963;BME280;6546;49.882;8.666;2022-09-30T05:34:09;99212.44;;;7.06;100.00
12963;BME280;6546;49.882;8.666;2022-09-30T05:36:38;99221.00;;;7.05;100.00
12963;BME280;6546;49.882;8.666;2022-09-30T05:39:05;99228.72;;;7.08;100.00
12963;BME280;6546;49.882;8.666;2022-09-30T05:41:31;99225.31;;;7.12;100.00
12963;BME280;6546;49.882;8.666;2022-09-30T05:43:58;99226.16;;;7.11;100.00
12963;BME280;6546;49.882;8.666;2022-09-30T05:46:25;99241.59;;;7.06;100.00
12963;BME280;6546;49.882;8.666;2022-09-30T05:48:52;99240.63;;;6.95;100.00
12963;BME280;6546;49.882;8.666;2022-09-30T05:51:21;99255.28;;;7.00;100.00
12963;BME280;6546;49.882;8.666;2022-09-30T05:53:48;99262.16;;;7.06;100.00
12963;BME280;6546;49.882;8.666;2022-09-30T05:56:15;99261.31;;;7.12;100.00
12963;BME280;6546;49.882;8.666;2022-09-30T05:58:46;99275.00;;;7.05;100.00
12963;BME280;6546;49.882;8.666;2022-09-30T06:01:15;99275.84;;;7.04;100.00
12963;BME280;6546;49.882;8.666;2022-09-30T06:03:42;99274.09;;;6.98;100.00
12963;BME280;6546;49.882;8.666;2022-09-30T06:06:09;99289.56;;;7.01;100.00
12963;BME280;6546;49.882;8.666;2022-09-30T06:08:38;99284.44;;;7.07;100.00
12963;BME280;6546;49.882;8.666;2022-09-30T06:11:09;99292.19;;;7.12;100.00
12963;BME280;6546;49.882;8.666;2022-09-30T06:13:37;99285.38;;;7.20;100.00
12963;BME280;6546;49.882;8.666;2022-09-30T06:16:05;99287.19;;;7.33;100.00
12963;BME280;6546;49.882;8.666;2022-09-30T06:18:32;99288.97;;;7.42;100.00
12963;BME280;6546;49.882;8.666;2022-09-30T06:21:00;99282.06;;;7.39;100.00
12963;BME280;6546;49.882;8.666;2022-09-30T06:23:28;99299.25;;;7.43;100.00
12963;BME280;6546;49.882;8.666;2022-09-30T06:25:57;99300.09;;;7.39;100.00
12963;BME280;6546;49.882;8.666;2022-09-30T06:28:24;99306.75;;;7.10;100.00
12963;BME280;6546;49.882;8.666;2022-09-30T06:30:51;99301.63;;;7.08;100.00
12963;BME280;6546;49.882;8.666;2022-09-30T06:33:18;99295.69;;;7.23;100.00
12963;BME280;6546;49.882;8.666;2022-09-30T06:35:45;99293.94;;;7.13;100.00
12963;BME280;6546;49.882;8.666;2022-09-30T06:38:13;99302.38;;;6.96;100.00
12963;BME280;6546;49.882;8.666;2022-09-30T06:40:41;99299.84;;;6.99;100.00
12963;BME280;6546;49.882;8.666;2022-09-30T06:43:09;99307.56;;;7.03;100.00
12963;BME280;6546;49.882;8.666;2022-09-30T06:45:37;99309.38;;;7.19;100.00
12963;BME280;6546;49.882;8.666;2022-09-30T06:48:04;99304.28;;;7.22;100.00
12963;BME280;6546;49.882;8.666;2022-09-30T06:50:32;99324.75;;;7.10;100.00
12963;BME280;6546;49.882;8.666;2022-09-30T06:53:00;99317.94;;;7.13;100.00
12963;BME280;6546;49.882;8.666;2022-09-30T06:55:28;99317.06;;;7.10;100.00
12963;BME280;6546;49.882;8.666;2022-09-30T06:57:55;99327.41;;;7.17;100.00
12963;BME280;6546;49.882;8.666;2022-09-30T07:00:25;99323.94;;;7.12;100.00
12963;BME280;6546;49.882;8.666;2022-09-30T07:02:52;99334.22;;;7.15;100.00
12963;BME280;6546;49.882;8.666;2022-09-30T07:05:19;99330.09;;;7.34;100.00
12963;BME280;6546;49.882;8.666;2022-09-30T07:07:46;99336.22;;;7.58;100.00
12963;BME280;6546;49.882;8.666;2022-09-30T07:10:13;99338.06;;;7.83;100.00
12963;BME280;6546;49.882;8.666;2022-09-30T07:12:39;99332.13;;;8.03;100.00
12963;BME280;6546;49.882;8.666;2022-09-30T07:15:07;99327.03;;;8.15;100.00
12963;BME280;6546;49.882;8.666;2022-09-30T07:17:34;99331.34;;;8.22;100.00
12963;BME280;6546;49.882;8.666;2022-09-30T07:20:01;99337.34;;;8.21;100.00
12963;BME280;6546;49.882;8.666;2022-09-30T07:22:28;99335.69;;;8.38;100.00
12963;BME280;6546;49.882;8.666;2022-09-30T07:24:59;99340.91;;;8.57;100.00
12963;BME280;6546;49.882;8.666;2022-09-30T07:27:28;99341.78;;;8.72;100.00
12963;BME280;6546;49.882;8.666;2022-09-30T07:29:56;99349.50;;;8.92;100.00
12963;BME280;6546;49.882;8.666;2022-09-30T07:32:23;99360.72;;;8.90;100.00
12963;BME280;6546;49.882;8.666;2022-09-30T07:34:51;99362.41;;;9.05;100.00
12963;BME280;6546;49.882;8.666;2022-09-30T07:37:18;99361.56;;;9.21;100.00
12963;BME280;6546;49.882;8.666;2022-09-30T07:39:47;99359.81;;;9.41;100.00
12963;BME280;6546;49.882;8.666;2022-09-30T07:42:15;99357.22;;;9.50;99.32
12963;BME280;6546;49.882;8.666;2022-09-30T07:44:44;99361.53;;;9.53;99.21
12963;BME280;6546;49.882;8.666;2022-09-30T07:47:11;99364.97;;;9.57;99.35
12963;BME280;6546;49.882;8.666;2022-09-30T07:49:40;99368.41;;;9.49;98.84
12963;BME280;6546;49.882;8.666;2022-09-30T07:52:09;99365.81;;;9.51;98.94
12963;BME280;6546;49.882;8.666;2022-09-30T07:54:36;99368.41;;;9.48;99.48
12963;BME280;6546;49.882;8.666;2022-09-30T07:57:04;99369.28;;;9.53;98.84
12963;BME280;6546;49.882;8.666;2022-09-30T07:59:32;99375.28;;;9.54;98.01
12963;BME280;6546;49.882;8.666;2022-09-30T08:01:59;99371.88;;;9.48;97.85
12963;BME280;6546;49.882;8.666;2022-09-30T08:04:26;99365.84;;;9.49;98.66
12963;BME280;6546;49.882;8.666;2022-09-30T08:06:54;99371.81;;;9.70;97.86
12963;BME280;6546;49.882;8.666;2022-09-30T08:09:24;99369.16;;;9.88;96.42
12963;BME280;6546;49.882;8.666;2022-09-30T08:11:50;99376.91;;;9.94;95.39
12963;BME280;6546;49.882;8.666;2022-09-30T08:14:19;99375.16;;;9.98;95.30
12963;BME280;6546;49.882;8.666;2022-09-30T08:16:46;99374.25;;;10.10;95.52
12963;BME280;6546;49.882;8.666;2022-09-30T08:19:15;99376.84;;;10.13;95.21
12963;BME280;6546;49.882;8.666;2022-09-30T08:21:42;99383.69;;;10.23;95.32
12963;BME280;6546;49.882;8.666;2022-09-30T08:24:10;99386.25;;;10.32;94.75
12963;BME280;6546;49.882;8.666;2022-09-30T08:26:38;99387.94;;;10.42;94.26
12963;BME280;6546;49.882;8.666;2022-09-30T08:29:05;99388.75;;;10.54;93.08
12963;BME280;6546;49.882;8.666;2022-09-30T08:31:31;99387.88;;;10.52;92.83
12963;BME280;6546;49.882;8.666;2022-09-30T08:33:58;99393.88;;;10.60;92.57
12963;BME280;6546;49.882;8.666;2022-09-30T08:36:27;99405.09;;;10.59;92.28
12963;BME280;6546;49.882;8.666;2022-09-30T08:38:54;99411.03;;;10.73;91.86
12963;BME280;6546;49.882;8.666;2022-09-30T08:41:31;99401.47;;;10.83;91.31
12963;BME280;6546;49.882;8.666;2022-09-30T08:44:10;99399.78;;;10.83;90.73
12963;BME280;6546;49.882;8.666;2022-09-30T08:46:44;99407.47;;;10.89;90.62
12963;BME280;6546;49.882;8.666;2022-09-30T08:49:28;99405.72;;;10.97;90.52
12963;BME280;6546;49.882;8.666;2022-09-30T08:52:00;99410.81;;;11.04;90.42
12963;BME280;6546;49.882;8.666;2022-09-30T08:54:30;99409.94;;;11.09;89.83
12963;BME280;6546;49.882;8.666;2022-09-30T08:56:57;99402.06;;;11.20;89.66
12963;BME280;6546;49.882;8.666;2022-09-30T08:59:31;99395.13;;;11.27;88.65
12963;BME280;6546;49.882;8.666;2022-09-30T09:02:08;99396.72;;;11.41;87.59
12963;BME280;6546;49.882;8.666;2022-09-30T09:04:39;99396.69;;;11.44;86.07
12963;BME280;6546;49.882;8.666;2022-09-30T09:07:09;99394.97;;;11.46;86.32
12963;BME280;6546;49.882;8.666;2022-09-30T09:09:50;99401.75;;;11.57;87.14
12963;BME280;6546;49.882;8.666;2022-09-30T09:12:26;99404.34;;;11.60;89.04
12963;BME280;6546;49.882;8.666;2022-09-30T09:15:07;99393.88;;;11.69;89.84
12963;BME280;6546;49.882;8.666;2022-09-30T09:17:51;99398.06;;;11.79;90.30
12963;BME280;6546;49.882;8.666;2022-09-30T09:20:24;99396.28;;;11.90;89.76
12963;BME280;6546;49.882;8.666;2022-09-30T09:22:54;99397.94;;;11.97;90.08
12963;BME280;6546;49.882;8.666;2022-09-30T09:25:24;99396.09;;;12.06;88.74
12963;BME280;6546;49.882;8.666;2022-09-30T09:27:54;99398.75;;;12.01;88.11
12963;BME280;6546;49.882;8.666;2022-09-30T09:30:25;99394.38;;;12.05;88.66
12963;BME280;6546;49.882;8.666;2022-09-30T09:32:55;99384.72;;;12.16;88.70
12963;BME280;6546;49.882;8.666;2022-09-30T09:35:39;99391.50;;;12.26;87.88
12963;BME280;6546;49.882;8.666;2022-09-30T09:38:12;99406.22;;;12.27;87.89
12963;BME280;6546;49.882;8.666;2022-09-30T09:40:58;99394.88;;;12.34;87.48
12963;BME280;6546;49.882;8.666;2022-09-30T09:43:34;99395.56;;;12.48;87.86
12963;BME280;6546;49.882;8.666;2022-09-30T09:46:12;99404.03;;;12.61;86.49
12963;BME280;6546;49.882;8.666;2022-09-30T09:48:42;99403.16;;;12.62;85.43
12963;BME280;6546;49.882;8.666;2022-09-30T09:51:13;99398.91;;;12.55;85.91
12963;BME280;6546;49.882;8.666;2022-09-30T09:53:46;99403.25;;;12.55;86.08
12963;BME280;6546;49.882;8.666;2022-09-30T09:56:15;99399.78;;;12.57;85.70
12963;BME280;6546;49.882;8.666;2022-09-30T09:59:06;99403.94;;;12.69;83.74
12963;BME280;6546;49.882;8.666;2022-09-30T10:01:37;99403.63;;;12.90;82.69
12963;BME280;6546;49.882;8.666;2022-09-30T10:04:13;99409.50;;;13.02;81.71
12963;BME280;6546;49.882;8.666;2022-09-30T10:06:47;99407.78;;;13.02;82.51
12963;BME280;6546;49.882;8.666;2022-09-30T10:09:23;99414.56;;;13.11;82.68
12963;BME280;6546;49.882;8.666;2022-09-30T10:11:50;99420.59;;;13.13;82.16
12963;BME280;6546;49.882;8.666;2022-09-30T10:14:19;99420.50;;;13.19;80.38
12963;BME280;6546;49.882;8.666;2022-09-30T10:16:48;99421.31;;;13.21;79.37
12963;BME280;6546;49.882;8.666;2022-09-30T10:19:19;99417.84;;;13.25;79.97
12963;BME280;6546;49.882;8.666;2022-09-30T10:21:46;99414.25;;;13.31;80.16
12963;BME280;6546;49.882;8.666;2022-09-30T10:24:26;99419.19;;;13.49;78.02
12963;BME280;6546;49.882;8.666;2022-09-30T10:26:53;99420.06;;;13.46;77.53
12963;BME280;6546;49.882;8.666;2022-09-30T10:29:25;99410.53;;;13.48;77.42
12963;BME280;6546;49.882;8.666;2022-09-30T10:31:54;99407.75;;;13.58;76.31
12963;BME280;6546;49.882;8.666;2022-09-30T10:34:25;99409.34;;;13.65;75.62
12963;BME280;6546;49.882;8.666;2022-09-30T10:36:54;99399.03;;;13.62;76.24
12963;BME280;6546;49.882;8.666;2022-09-30T10:39:23;99402.59;;;13.55;77.14
12963;BME280;6546;49.882;8.666;2022-09-30T10:42:00;99398.31;;;13.54;78.28
12963;BME280;6546;49.882;8.666;2022-09-30T10:44:27;99403.44;;;13.57;76.55
12963;BME280;6546;49.882;8.666;2022-09-30T10:47:00;99402.59;;;13.55;77.20
12963;BME280;6546;49.882;8.666;2022-09-30T10:49:30;99399.97;;;13.56;77.76
12963;BME280;6546;49.882;8.666;2022-09-30T10:52:00;99397.25;;;13.64;77.30
12963;BME280;6546;49.882;8.666;2022-09-30T10:54:34;99395.41;;;13.69;77.55
12963;BME280;6546;49.882;8.666;2022-09-30T10:57:02;99389.44;;;13.65;77.59
12963;BME280;6546;49.882;8.666;2022-09-30T10:59:32;99393.88;;;13.59;76.05
12963;BME280;6546;49.882;8.666;2022-09-30T11:02:17;99390.50;;;13.54;76.31
12963;BME280;6546;49.882;8.666;2022-09-30T11:04:50;99395.06;;;13.41;76.95
12963;BME280;6546;49.882;8.666;2022-09-30T11:07:24;99389.78;;;13.45;77.78
12963;BME280;6546;49.882;8.666;2022-09-30T11:09:57;99386.84;;;13.64;77.07
12963;BME280;6546;49.882;8.666;2022-09-30T11:12:31;99390.00;;;13.81;76.86
12963;BME280;6546;49.882;8.666;2022-09-30T11:15:08;99389.66;;;14.00;77.20
12963;BME280;6546;49.882;8.666;2022-09-30T11:17:46;99385.91;;;14.13;75.35
12963;BME280;6546;49.882;8.666;2022-09-30T11:20:19;99390.72;;;14.31;74.35
12963;BME280;6546;49.882;8.666;2022-09-30T11:22:52;99385.22;;;14.46;73.60
12963;BME280;6546;49.882;8.666;2022-09-30T11:25:26;99388.44;;;14.58;73.47
12963;BME280;6546;49.882;8.666;2022-09-30T11:28:24;99399.59;;;14.64;74.20
12963;BME280;6546;49.882;8.666;2022-09-30T11:31:01;99390.59;;;14.79;73.97
12963;BME280;6546;49.882;8.666;2022-09-30T11:33:45;99382.78;;;14.79;73.16
12963;BME280;6546;49.882;8.666;2022-09-30T11:36:25;99389.78;;;14.77;72.84
12963;BME280;6546;49.882;8.666;2022-09-30T11:39:06;99396.69;;;14.78;72.96
12963;BME280;6546;49.882;8.666;2022-09-30T11:41:37;99402.16;;;14.66;73.19
12963;BME280;6546;49.882;8.666;2022-09-30T11:44:20;99395.50;;;14.53;74.93
12963;BME280;6546;49.882;8.666;2022-09-30T11:47:05;99396.44;;;14.50;74.94
12963;BME280;6546;49.882;8.666;2022-09-30T11:50:01;99400.72;;;14.53;70.08
12963;BME280;6546;49.882;8.666;2022-09-30T11:52:34;99399.13;;;14.45;70.15
12963;BME280;6546;49.882;8.666;2022-09-30T11:55:20;99400.19;;;14.35;71.65
12963;BME280;6546;49.882;8.666;2022-09-30T11:57:55;99395.25;;;14.23;71.94
12963;BME280;6546;49.882;8.666;2022-09-30T12:00:24;99401.44;;;14.17;72.74
12963;BME280;6546;49.882;8.666;2022-09-30T12:02:53;99402.16;;;14.24;74.69
12963;BME280;6546;49.882;8.666;2022-09-30T12:05:27;99390.03;;;14.23;76.19
12963;BME280;6546;49.882;8.666;2022-09-30T12:08:03;99392.53;;;14.29;74.96
12963;BME280;6546;49.882;8.666;2022-09-30T12:10:38;99401.97;;;14.33;74.39
12963;BME280;6546;49.882;8.666;2022-09-30T12:13:10;99403.69;;;14.34;74.82
12963;BME280;6546;49.882;8.666;2022-09-30T12:15:40;99407.16;;;14.35;74.13
12963;BME280;6546;49.882;8.666;2022-09-30T12:18:10;99399.19;;;14.42;73.81
12963;BME280;6546;49.882;8.666;2022-09-30T12:20:41;99405.34;;;14.38;72.72
12963;BME280;6546;49.882;8.666;2022-09-30T12:23:15;99397.59;;;14.35;72.25
12963;BME280;6546;49.882;8.666;2022-09-30T12:25:46;99414.91;;;14.38;71.39
12963;BME280;6546;49.882;8.666;2022-09-30T12:28:23;99412.09;;;14.47;71.90
12963;BME280;6546;49.882;8.666;2022-09-30T12:31:23;99411.22;;;14.50;70.61
12963;BME280;6546;49.882;8.666;2022-09-30T12:34:04;99412.94;;;14.49;70.71
12963;BME280;6546;49.882;8.666;2022-09-30T12:39:52;99411.97;;;14.55;69.33
12963;BME280;6546;49.882;8.666;2022-09-30T12:46:00;99415.84;;;14.76;67.71
12963;BME280;6546;49.882;8.666;2022-09-30T12:48:35;99421.16;;;14.71;68.38
12963;BME280;6546;49.882;8.666;2022-09-30T12:51:04;99414.84;;;14.81;67.84
12963;BME280;6546;49.882;8.666;2022-09-30T12:53:34;99417.19;;;14.93;66.34
12963;BME280;6546;49.882;8.666;2022-09-30T12:56:04;99412.03;;;14.90;67.41
12963;BME280;6546;49.882;8.666;2022-09-30T12:58:33;99411.91;;;14.96;65.10
12963;BME280;6546;49.882;8.666;2022-09-30T13:01:05;99414.34;;;15.03;64.99
12963;BME280;6546;49.882;8.666;2022-09-30T13:03:48;99417.97;;;14.97;65.92
12963;BME280;6546;49.882;8.666;2022-09-30T13:06:16;99412.03;;;14.90;65.94
12963;BME280;6546;49.882;8.666;2022-09-30T13:11:36;99419.56;;;15.03;64.52
12963;BME280;6546;49.882;8.666;2022-09-30T13:14:37;99412.69;;;15.00;65.76
12963;BME280;6546;49.882;8.666;2022-09-30T13:17:25;99417.03;;;15.00;65.45
12963;BME280;6546;49.882;8.666;2022-09-30T13:19:53;99417.03;;;15.00;63.51
12963;BME280;6546;49.882;8.666;2022-09-30T13:25:14;99417.25;;;14.90;65.38
12963;BME280;6546;49.882;8.666;2022-09-30T13:27:42;99423.50;;;14.82;65.96
12963;BME280;6546;49.882;8.666;2022-09-30T13:33:41;99414.97;;;14.77;66.50
12963;BME280;6546;49.882;8.666;2022-09-30T13:36:24;99417.72;;;14.69;66.99
12963;BME280;6546;49.882;8.666;2022-09-30T13:39:06;99423.19;;;14.57;67.98
12963;BME280;6546;49.882;8.666;2022-09-30T13:41:36;99417.19;;;14.53;68.65
12963;BME280;6546;49.882;8.666;2022-09-30T13:44:07;99418.00;;;14.57;68.03
12963;BME280;6546;49.882;8.666;2022-09-30T13:46:38;99415.88;;;14.74;64.63
12963;BME280;6546;49.882;8.666;2022-09-30T13:49:12;99409.09;;;14.67;66.31
12963;BME280;6546;49.882;8.666;2022-09-30T13:51:41;99412.41;;;14.73;65.77
12963;BME280;6546;49.882;8.666;2022-09-30T13:54:14;99419.31;;;14.76;64.92
12963;BME280;6546;49.882;8.666;2022-09-30T13:56:46;99417.59;;;14.75;65.18